Pagina principale
METAR-TAF:

METAR-TAF

Aeroporti :

Aeroporto di Torino-Caselle

Torino, Italia

latitudine: 45-13N, longitudine: 007-39E, altezza: 301 m

Osservazione

Il bollettino è stato emesso 35 minuti fa, alle 10:50 UTC
Vento 2 kt da direzioni variabili
Temperature 14°C
Umidità 63%
Pressione 1022 hPa
Visibilità: 9000 m

METAR: LIMF 261050Z VRB02KT 9000 NSC 14/07 Q1022

Ora: 13:25 (11:25 UTC)

Previsione

Il bollettino è stato emesso 6 ore e 25 minuti fa, alle 05:00 UTC
Previsione valida dal 26 alle 06 UTC al 27 alle 06 UTC
Vento 5 kt da direzioni variabili
Visibilità 10 km o più
Nuvoloso ad un'altezza di 3000 ft

TAF: LIMF 260500Z 2606/2706 VRB05KT 9999 BKN030

Osservazioni e previsioni meteorologiche di più di 4000 aeroporti (messaggi METAR e TAF).

Le stazioni disponibili sono rappresentate dai dischi gialli e rossi sulla carta.

Puntare il mouse per vedere il nome della stazione.

Clicca sopra per visualizzare le osservazioni e previsioni meteorologiche.

Per cambiare la mappa : fare clic sui pulsanti verdi con una croce nera per ingrandire, il pulsante verde con un trattino per diminuire, o sulla freccia verde per le mappe adiacenti.


METAR-TAF: